sensor_id;sensor_type;location;lat;lon;timestamp;P1;durP1;ratioP1;P2;durP2;ratioP2
74528;SDS011;63009;52.584;5.932;2023-08-24T00:00:50;11.27;;;5.07;;
74528;SDS011;63009;52.584;5.932;2023-08-24T00:03:16;14.07;;;6.10;;
74528;SDS011;63009;52.584;5.932;2023-08-24T00:05:41;12.83;;;6.60;;
74528;SDS011;63009;52.584;5.932;2023-08-24T00:08:07;12.30;;;6.75;;
74528;SDS011;63009;52.584;5.932;2023-08-24T00:10:34;11.63;;;5.63;;
74528;SDS011;63009;52.584;5.932;2023-08-24T00:13:00;12.75;;;5.68;;
74528;SDS011;63009;52.584;5.932;2023-08-24T00:15:26;11.90;;;5.88;;
74528;SDS011;63009;52.584;5.932;2023-08-24T00:17:52;11.10;;;6.00;;
74528;SDS011;63009;52.584;5.932;2023-08-24T00:20:17;11.70;;;5.40;;
74528;SDS011;63009;52.584;5.932;2023-08-24T00:22:42;11.15;;;6.00;;
74528;SDS011;63009;52.584;5.932;2023-08-24T00:25:08;11.48;;;5.70;;
74528;SDS011;63009;52.584;5.932;2023-08-24T00:27:34;10.45;;;5.22;;
74528;SDS011;63009;52.584;5.932;2023-08-24T00:30:03;12.88;;;5.45;;
74528;SDS011;63009;52.584;5.932;2023-08-24T00:32:29;11.85;;;6.05;;
74528;SDS011;63009;52.584;5.932;2023-08-24T00:34:55;11.40;;;5.97;;
74528;SDS011;63009;52.584;5.932;2023-08-24T00:37:20;9.82;;;5.05;;
74528;SDS011;63009;52.584;5.932;2023-08-24T00:39:46;10.70;;;5.68;;
74528;SDS011;63009;52.584;5.932;2023-08-24T00:42:11;11.17;;;5.03;;
74528;SDS011;63009;52.584;5.932;2023-08-24T00:44:39;11.05;;;4.85;;
74528;SDS011;63009;52.584;5.932;2023-08-24T00:47:05;11.35;;;5.05;;
74528;SDS011;63009;52.584;5.932;2023-08-24T00:49:31;12.43;;;5.18;;
74528;SDS011;63009;52.584;5.932;2023-08-24T00:51:56;9.47;;;4.47;;
74528;SDS011;63009;52.584;5.932;2023-08-24T00:54:22;10.68;;;5.30;;
74528;SDS011;63009;52.584;5.932;2023-08-24T00:56:47;10.40;;;5.47;;
74528;SDS011;63009;52.584;5.932;2023-08-24T00:59:13;11.60;;;5.90;;
74528;SDS011;63009;52.584;5.932;2023-08-24T01:01:39;9.82;;;4.55;;
74528;SDS011;63009;52.584;5.932;2023-08-24T01:04:06;15.45;;;5.70;;
74528;SDS011;63009;52.584;5.932;2023-08-24T01:06:32;11.68;;;5.57;;
74528;SDS011;63009;52.584;5.932;2023-08-24T01:08:57;11.65;;;5.78;;
74528;SDS011;63009;52.584;5.932;2023-08-24T01:11:35;12.63;;;5.68;;
74528;SDS011;63009;52.584;5.932;2023-08-24T01:14:23;11.10;;;6.50;;
74528;SDS011;63009;52.584;5.932;2023-08-24T01:17:18;11.32;;;5.63;;
74528;SDS011;63009;52.584;5.932;2023-08-24T01:19:47;12.95;;;6.47;;
74528;SDS011;63009;52.584;5.932;2023-08-24T01:27:31;12.20;;;5.78;;
74528;SDS011;63009;52.584;5.932;2023-08-24T01:29:59;13.95;;;6.45;;
74528;SDS011;63009;52.584;5.932;2023-08-24T01:32:25;12.70;;;6.72;;
74528;SDS011;63009;52.584;5.932;2023-08-24T01:34:51;11.67;;;6.07;;
74528;SDS011;63009;52.584;5.932;2023-08-24T01:37:16;13.47;;;6.73;;
74528;SDS011;63009;52.584;5.932;2023-08-24T01:39:42;12.82;;;6.85;;
74528;SDS011;63009;52.584;5.932;2023-08-24T01:42:19;12.80;;;7.00;;
74528;SDS011;63009;52.584;5.932;2023-08-24T01:44:50;15.05;;;7.00;;
74528;SDS011;63009;52.584;5.932;2023-08-24T01:47:19;11.90;;;5.85;;
74528;SDS011;63009;52.584;5.932;2023-08-24T01:49:46;14.80;;;6.82;;
74528;SDS011;63009;52.584;5.932;2023-08-24T01:52:12;15.30;;;7.80;;
74528;SDS011;63009;52.584;5.932;2023-08-24T01:54:38;12.73;;;7.22;;
74528;SDS011;63009;52.584;5.932;2023-08-24T01:57:04;14.80;;;7.85;;
74528;SDS011;63009;52.584;5.932;2023-08-24T01:59:31;16.45;;;7.70;;
74528;SDS011;63009;52.584;5.932;2023-08-24T02:01:56;15.10;;;7.30;;
74528;SDS011;63009;52.584;5.932;2023-08-24T02:04:22;13.60;;;6.88;;
74528;SDS011;63009;52.584;5.932;2023-08-24T02:06:47;13.87;;;7.17;;
74528;SDS011;63009;52.584;5.932;2023-08-24T02:09:12;14.50;;;6.97;;
74528;SDS011;63009;52.584;5.932;2023-08-24T02:11:38;15.10;;;8.53;;
74528;SDS011;63009;52.584;5.932;2023-08-24T02:14:03;14.45;;;8.00;;
74528;SDS011;63009;52.584;5.932;2023-08-24T02:16:28;16.50;;;8.57;;
74528;SDS011;63009;52.584;5.932;2023-08-24T02:18:54;15.07;;;7.43;;
74528;SDS011;63009;52.584;5.932;2023-08-24T02:21:19;12.47;;;7.80;;
74528;SDS011;63009;52.584;5.932;2023-08-24T02:23:44;15.23;;;7.37;;
74528;SDS011;63009;52.584;5.932;2023-08-24T02:26:09;13.60;;;6.60;;
74528;SDS011;63009;52.584;5.932;2023-08-24T02:28:35;16.80;;;7.47;;
74528;SDS011;63009;52.584;5.932;2023-08-24T02:31:02;13.32;;;7.25;;
74528;SDS011;63009;52.584;5.932;2023-08-24T02:33:28;12.38;;;7.22;;
74528;SDS011;63009;52.584;5.932;2023-08-24T02:35:54;10.73;;;6.80;;
74528;SDS011;63009;52.584;5.932;2023-08-24T02:38:19;13.23;;;7.32;;
74528;SDS011;63009;52.584;5.932;2023-08-24T02:40:45;15.77;;;7.90;;
74528;SDS011;63009;52.584;5.932;2023-08-24T02:43:10;14.33;;;7.10;;
74528;SDS011;63009;52.584;5.932;2023-08-24T02:45:35;14.87;;;7.13;;
74528;SDS011;63009;52.584;5.932;2023-08-24T02:48:00;14.57;;;8.80;;
74528;SDS011;63009;52.584;5.932;2023-08-24T02:50:26;13.13;;;7.50;;
74528;SDS011;63009;52.584;5.932;2023-08-24T02:52:51;15.17;;;7.80;;
74528;SDS011;63009;52.584;5.932;2023-08-24T02:55:17;12.10;;;7.22;;
74528;SDS011;63009;52.584;5.932;2023-08-24T02:57:42;12.82;;;7.72;;
74528;SDS011;63009;52.584;5.932;2023-08-24T03:00:08;22.80;;;8.60;;
74528;SDS011;63009;52.584;5.932;2023-08-24T03:02:34;14.48;;;7.70;;
74528;SDS011;63009;52.584;5.932;2023-08-24T03:05:00;17.63;;;7.78;;
74528;SDS011;63009;52.584;5.932;2023-08-24T03:07:25;15.90;;;8.47;;
74528;SDS011;63009;52.584;5.932;2023-08-24T03:09:51;15.40;;;7.25;;
74528;SDS011;63009;52.584;5.932;2023-08-24T03:12:16;18.20;;;7.93;;
74528;SDS011;63009;52.584;5.932;2023-08-24T03:14:42;13.85;;;6.90;;
74528;SDS011;63009;52.584;5.932;2023-08-24T03:17:07;13.23;;;6.93;;
74528;SDS011;63009;52.584;5.932;2023-08-24T03:19:32;13.45;;;7.25;;
74528;SDS011;63009;52.584;5.932;2023-08-24T03:21:58;18.50;;;8.77;;
74528;SDS011;63009;52.584;5.932;2023-08-24T03:24:23;12.97;;;7.33;;
74528;SDS011;63009;52.584;5.932;2023-08-24T03:26:48;12.95;;;7.22;;
74528;SDS011;63009;52.584;5.932;2023-08-24T03:29:14;16.60;;;7.43;;
74528;SDS011;63009;52.584;5.932;2023-08-24T03:31:39;12.80;;;7.40;;
74528;SDS011;63009;52.584;5.932;2023-08-24T03:34:04;20.37;;;8.63;;
74528;SDS011;63009;52.584;5.932;2023-08-24T03:36:29;16.17;;;7.97;;
74528;SDS011;63009;52.584;5.932;2023-08-24T03:38:55;13.23;;;7.45;;
74528;SDS011;63009;52.584;5.932;2023-08-24T03:41:20;12.07;;;7.20;;
74528;SDS011;63009;52.584;5.932;2023-08-24T03:43:45;12.40;;;7.10;;
74528;SDS011;63009;52.584;5.932;2023-08-24T03:46:10;13.50;;;7.90;;
74528;SDS011;63009;52.584;5.932;2023-08-24T03:48:36;15.43;;;8.57;;
74528;SDS011;63009;52.584;5.932;2023-08-24T03:51:01;14.87;;;8.03;;
74528;SDS011;63009;52.584;5.932;2023-08-24T03:53:27;14.10;;;8.30;;
74528;SDS011;63009;52.584;5.932;2023-08-24T03:55:52;16.17;;;8.17;;
74528;SDS011;63009;52.584;5.932;2023-08-24T03:58:19;14.85;;;8.82;;
74528;SDS011;63009;52.584;5.932;2023-08-24T04:00:45;15.82;;;7.45;;
74528;SDS011;63009;52.584;5.932;2023-08-24T04:03:10;15.45;;;8.15;;
74528;SDS011;63009;52.584;5.932;2023-08-24T04:05:36;16.02;;;7.65;;
74528;SDS011;63009;52.584;5.932;2023-08-24T04:08:01;15.30;;;8.05;;
74528;SDS011;63009;52.584;5.932;2023-08-24T04:10:27;16.52;;;8.30;;
74528;SDS011;63009;52.584;5.932;2023-08-24T04:12:52;13.77;;;8.70;;
74528;SDS011;63009;52.584;5.932;2023-08-24T04:15:18;16.05;;;9.80;;
74528;SDS011;63009;52.584;5.932;2023-08-24T04:17:43;15.63;;;8.50;;
74528;SDS011;63009;52.584;5.932;2023-08-24T04:20:09;15.77;;;7.90;;
74528;SDS011;63009;52.584;5.932;2023-08-24T04:22:34;15.18;;;8.65;;
74528;SDS011;63009;52.584;5.932;2023-08-24T04:25:00;17.93;;;8.60;;
74528;SDS011;63009;52.584;5.932;2023-08-24T04:27:25;13.18;;;7.80;;
74528;SDS011;63009;52.584;5.932;2023-08-24T04:29:50;14.43;;;8.77;;
74528;SDS011;63009;52.584;5.932;2023-08-24T04:32:16;13.93;;;7.93;;
74528;SDS011;63009;52.584;5.932;2023-08-24T04:34:41;14.88;;;8.43;;
74528;SDS011;63009;52.584;5.932;2023-08-24T04:37:07;13.43;;;8.07;;
74528;SDS011;63009;52.584;5.932;2023-08-24T04:39:32;15.50;;;8.13;;
74528;SDS011;63009;52.584;5.932;2023-08-24T04:41:57;14.52;;;8.40;;
74528;SDS011;63009;52.584;5.932;2023-08-24T04:44:23;15.23;;;9.30;;
74528;SDS011;63009;52.584;5.932;2023-08-24T04:46:49;15.43;;;7.90;;
74528;SDS011;63009;52.584;5.932;2023-08-24T04:49:14;20.00;;;8.17;;
74528;SDS011;63009;52.584;5.932;2023-08-24T04:51:40;16.67;;;8.77;;
74528;SDS011;63009;52.584;5.932;2023-08-24T04:54:05;15.00;;;8.13;;
74528;SDS011;63009;52.584;5.932;2023-08-24T04:56:30;17.13;;;9.43;;
74528;SDS011;63009;52.584;5.932;2023-08-24T04:58:56;17.10;;;8.80;;
74528;SDS011;63009;52.584;5.932;2023-08-24T05:01:22;16.67;;;10.07;;
74528;SDS011;63009;52.584;5.932;2023-08-24T05:03:50;16.33;;;9.18;;
74528;SDS011;63009;52.584;5.932;2023-08-24T05:06:15;17.48;;;10.95;;
74528;SDS011;63009;52.584;5.932;2023-08-24T05:08:40;20.03;;;11.67;;
74528;SDS011;63009;52.584;5.932;2023-08-24T05:11:19;16.67;;;10.10;;
74528;SDS011;63009;52.584;5.932;2023-08-24T05:13:45;18.15;;;9.95;;
74528;SDS011;63009;52.584;5.932;2023-08-24T05:16:11;16.27;;;10.02;;
74528;SDS011;63009;52.584;5.932;2023-08-24T05:18:37;17.92;;;10.57;;
74528;SDS011;63009;52.584;5.932;2023-08-24T05:21:03;18.17;;;10.00;;
74528;SDS011;63009;52.584;5.932;2023-08-24T05:23:29;16.95;;;9.25;;
74528;SDS011;63009;52.584;5.932;2023-08-24T05:25:56;18.80;;;9.57;;
74528;SDS011;63009;52.584;5.932;2023-08-24T05:28:22;17.67;;;8.90;;
74528;SDS011;63009;52.584;5.932;2023-08-24T05:30:47;15.47;;;8.77;;
74528;SDS011;63009;52.584;5.932;2023-08-24T05:33:13;16.15;;;8.68;;
74528;SDS011;63009;52.584;5.932;2023-08-24T05:35:38;16.42;;;9.05;;
74528;SDS011;63009;52.584;5.932;2023-08-24T05:38:03;17.63;;;9.23;;
74528;SDS011;63009;52.584;5.932;2023-08-24T05:40:28;17.33;;;8.43;;
74528;SDS011;63009;52.584;5.932;2023-08-24T05:42:54;15.73;;;8.53;;
74528;SDS011;63009;52.584;5.932;2023-08-24T05:45:19;17.53;;;8.80;;
74528;SDS011;63009;52.584;5.932;2023-08-24T05:47:44;18.13;;;9.67;;
74528;SDS011;63009;52.584;5.932;2023-08-24T05:50:09;15.83;;;8.20;;
74528;SDS011;63009;52.584;5.932;2023-08-24T05:52:36;14.25;;;9.13;;
74528;SDS011;63009;52.584;5.932;2023-08-24T05:55:02;16.23;;;9.25;;
74528;SDS011;63009;52.584;5.932;2023-08-24T05:57:27;16.98;;;8.85;;
74528;SDS011;63009;52.584;5.932;2023-08-24T05:59:52;16.77;;;8.10;;
74528;SDS011;63009;52.584;5.932;2023-08-24T06:02:18;14.10;;;8.13;;
74528;SDS011;63009;52.584;5.932;2023-08-24T06:04:43;12.63;;;5.97;;
74528;SDS011;63009;52.584;5.932;2023-08-24T06:07:08;12.93;;;5.63;;
74528;SDS011;63009;52.584;5.932;2023-08-24T06:09:33;14.67;;;7.83;;
74528;SDS011;63009;52.584;5.932;2023-08-24T06:11:59;15.68;;;8.93;;
74528;SDS011;63009;52.584;5.932;2023-08-24T06:14:24;13.20;;;8.10;;
74528;SDS011;63009;52.584;5.932;2023-08-24T06:16:50;15.07;;;8.23;;
74528;SDS011;63009;52.584;5.932;2023-08-24T06:19:18;16.50;;;8.10;;
74528;SDS011;63009;52.584;5.932;2023-08-24T06:21:43;15.77;;;8.00;;
74528;SDS011;63009;52.584;5.932;2023-08-24T06:24:08;13.03;;;7.57;;
74528;SDS011;63009;52.584;5.932;2023-08-24T06:26:34;15.27;;;8.75;;
74528;SDS011;63009;52.584;5.932;2023-08-24T06:29:00;13.60;;;7.60;;
74528;SDS011;63009;52.584;5.932;2023-08-24T06:31:25;13.20;;;7.53;;
74528;SDS011;63009;52.584;5.932;2023-08-24T06:33:50;13.50;;;7.27;;
74528;SDS011;63009;52.584;5.932;2023-08-24T06:36:15;14.13;;;8.07;;
74528;SDS011;63009;52.584;5.932;2023-08-24T06:38:41;16.07;;;8.43;;
74528;SDS011;63009;52.584;5.932;2023-08-24T06:41:06;15.40;;;7.20;;
74528;SDS011;63009;52.584;5.932;2023-08-24T06:43:36;14.70;;;7.85;;
74528;SDS011;63009;52.584;5.932;2023-08-24T06:46:03;13.52;;;7.32;;
74528;SDS011;63009;52.584;5.932;2023-08-24T06:48:29;13.18;;;7.85;;
74528;SDS011;63009;52.584;5.932;2023-08-24T06:50:54;12.87;;;7.47;;
74528;SDS011;63009;52.584;5.932;2023-08-24T06:53:19;11.00;;;6.00;;
74528;SDS011;63009;52.584;5.932;2023-08-24T06:55:44;18.73;;;7.57;;
74528;SDS011;63009;52.584;5.932;2023-08-24T06:58:10;13.70;;;7.40;;
74528;SDS011;63009;52.584;5.932;2023-08-24T07:00:35;12.10;;;7.23;;
74528;SDS011;63009;52.584;5.932;2023-08-24T07:03:00;12.60;;;7.00;;
74528;SDS011;63009;52.584;5.932;2023-08-24T07:05:26;12.82;;;7.13;;
74528;SDS011;63009;52.584;5.932;2023-08-24T07:07:51;12.67;;;8.87;;
74528;SDS011;63009;52.584;5.932;2023-08-24T07:10:18;13.27;;;7.25;;
74528;SDS011;63009;52.584;5.932;2023-08-24T07:12:44;14.30;;;6.50;;
74528;SDS011;63009;52.584;5.932;2023-08-24T07:15:10;12.48;;;5.60;;
74528;SDS011;63009;52.584;5.932;2023-08-24T07:17:36;13.07;;;5.97;;
74528;SDS011;63009;52.584;5.932;2023-08-24T07:20:02;13.70;;;6.30;;
74528;SDS011;63009;52.584;5.932;2023-08-24T07:22:30;14.45;;;6.18;;
74528;SDS011;63009;52.584;5.932;2023-08-24T07:24:55;13.75;;;6.28;;
74528;SDS011;63009;52.584;5.932;2023-08-24T07:27:21;14.15;;;6.53;;
74528;SDS011;63009;52.584;5.932;2023-08-24T07:29:47;11.93;;;6.55;;
74528;SDS011;63009;52.584;5.932;2023-08-24T07:32:12;13.43;;;5.90;;
74528;SDS011;63009;52.584;5.932;2023-08-24T07:34:37;13.55;;;6.22;;
74528;SDS011;63009;52.584;5.932;2023-08-24T07:37:03;12.60;;;5.40;;
74528;SDS011;63009;52.584;5.932;2023-08-24T07:39:28;11.68;;;5.82;;
74528;SDS011;63009;52.584;5.932;2023-08-24T07:41:53;11.20;;;5.70;;
74528;SDS011;63009;52.584;5.932;2023-08-24T07:44:19;15.50;;;7.18;;
74528;SDS011;63009;52.584;5.932;2023-08-24T07:46:44;13.63;;;7.97;;
74528;SDS011;63009;52.584;5.932;2023-08-24T07:49:10;16.20;;;7.38;;
74528;SDS011;63009;52.584;5.932;2023-08-24T07:51:35;13.80;;;8.13;;
74528;SDS011;63009;52.584;5.932;2023-08-24T07:54:01;13.98;;;7.57;;
74528;SDS011;63009;52.584;5.932;2023-08-24T07:56:26;14.65;;;7.63;;
74528;SDS011;63009;52.584;5.932;2023-08-24T07:58:51;12.33;;;7.27;;
74528;SDS011;63009;52.584;5.932;2023-08-24T08:01:17;12.13;;;6.80;;
74528;SDS011;63009;52.584;5.932;2023-08-24T08:03:42;12.75;;;6.82;;
74528;SDS011;63009;52.584;5.932;2023-08-24T08:06:07;13.33;;;7.43;;
74528;SDS011;63009;52.584;5.932;2023-08-24T08:08:32;12.33;;;6.73;;
74528;SDS011;63009;52.584;5.932;2023-08-24T08:10:58;12.65;;;7.07;;
74528;SDS011;63009;52.584;5.932;2023-08-24T08:13:25;14.70;;;7.75;;
74528;SDS011;63009;52.584;5.932;2023-08-24T08:15:51;13.75;;;8.70;;
74528;SDS011;63009;52.584;5.932;2023-08-24T08:18:16;13.03;;;6.53;;
74528;SDS011;63009;52.584;5.932;2023-08-24T08:20:41;13.27;;;7.30;;
74528;SDS011;63009;52.584;5.932;2023-08-24T08:23:06;11.90;;;6.37;;
74528;SDS011;63009;52.584;5.932;2023-08-24T08:25:32;15.60;;;7.17;;
74528;SDS011;63009;52.584;5.932;2023-08-24T08:27:57;12.97;;;7.80;;
74528;SDS011;63009;52.584;5.932;2023-08-24T08:30:22;11.33;;;7.23;;
74528;SDS011;63009;52.584;5.932;2023-08-24T08:32:47;12.83;;;6.70;;
74528;SDS011;63009;52.584;5.932;2023-08-24T08:35:13;13.75;;;6.53;;
74528;SDS011;63009;52.584;5.932;2023-08-24T08:37:40;11.52;;;6.15;;
74528;SDS011;63009;52.584;5.932;2023-08-24T08:40:05;13.40;;;7.23;;
74528;SDS011;63009;52.584;5.932;2023-08-24T08:42:34;13.73;;;7.15;;
74528;SDS011;63009;52.584;5.932;2023-08-24T08:45:00;14.55;;;6.72;;
74528;SDS011;63009;52.584;5.932;2023-08-24T08:47:28;15.48;;;6.93;;
74528;SDS011;63009;52.584;5.932;2023-08-24T08:49:54;13.10;;;6.28;;
74528;SDS011;63009;52.584;5.932;2023-08-24T08:52:20;12.77;;;7.18;;
74528;SDS011;63009;52.584;5.932;2023-08-24T08:54:45;13.48;;;7.60;;
74528;SDS011;63009;52.584;5.932;2023-08-24T08:57:10;13.53;;;8.27;;
74528;SDS011;63009;52.584;5.932;2023-08-24T08:59:36;13.77;;;7.75;;
74528;SDS011;63009;52.584;5.932;2023-08-24T09:02:02;11.68;;;8.02;;
74528;SDS011;63009;52.584;5.932;2023-08-24T09:04:32;12.73;;;7.70;;
74528;SDS011;63009;52.584;5.932;2023-08-24T09:06:58;13.60;;;8.77;;
74528;SDS011;63009;52.584;5.932;2023-08-24T09:09:28;15.05;;;8.77;;
74528;SDS011;63009;52.584;5.932;2023-08-24T09:11:53;14.33;;;9.77;;
74528;SDS011;63009;52.584;5.932;2023-08-24T09:14:19;15.50;;;10.10;;
74528;SDS011;63009;52.584;5.932;2023-08-24T09:16:44;14.90;;;10.27;;
74528;SDS011;63009;52.584;5.932;2023-08-24T09:19:10;15.43;;;9.98;;
74528;SDS011;63009;52.584;5.932;2023-08-24T09:21:37;14.82;;;9.18;;
74528;SDS011;63009;52.584;5.932;2023-08-24T09:24:03;15.95;;;10.30;;
74528;SDS011;63009;52.584;5.932;2023-08-24T09:26:30;15.25;;;10.52;;
74528;SDS011;63009;52.584;5.932;2023-08-24T09:28:56;17.55;;;11.05;;
74528;SDS011;63009;52.584;5.932;2023-08-24T09:31:23;14.05;;;10.23;;
74528;SDS011;63009;52.584;5.932;2023-08-24T09:33:49;12.77;;;7.93;;
74528;SDS011;63009;52.584;5.932;2023-08-24T09:36:14;15.43;;;8.63;;
74528;SDS011;63009;52.584;5.932;2023-08-24T09:38:47;14.00;;;8.88;;
74528;SDS011;63009;52.584;5.932;2023-08-24T09:41:13;16.17;;;10.07;;
74528;SDS011;63009;52.584;5.932;2023-08-24T09:43:39;15.57;;;9.10;;
74528;SDS011;63009;52.584;5.932;2023-08-24T09:46:05;15.05;;;10.07;;
74528;SDS011;63009;52.584;5.932;2023-08-24T09:48:31;13.45;;;8.98;;
74528;SDS011;63009;52.584;5.932;2023-08-24T09:50:57;12.30;;;7.50;;
74528;SDS011;63009;52.584;5.932;2023-08-24T09:53:22;14.13;;;9.05;;
74528;SDS011;63009;52.584;5.932;2023-08-24T09:55:49;14.23;;;9.75;;
74528;SDS011;63009;52.584;5.932;2023-08-24T09:58:21;15.35;;;9.35;;
74528;SDS011;63009;52.584;5.932;2023-08-24T10:00:48;14.15;;;9.00;;
74528;SDS011;63009;52.584;5.932;2023-08-24T10:03:15;16.95;;;9.32;;
74528;SDS011;63009;52.584;5.932;2023-08-24T10:05:45;15.57;;;9.20;;
74528;SDS011;63009;52.584;5.932;2023-08-24T10:08:12;21.00;;;10.02;;
74528;SDS011;63009;52.584;5.932;2023-08-24T10:10:39;16.08;;;8.77;;
74528;SDS011;63009;52.584;5.932;2023-08-24T10:13:08;16.55;;;9.48;;
74528;SDS011;63009;52.584;5.932;2023-08-24T10:15:39;14.85;;;10.30;;
74528;SDS011;63009;52.584;5.932;2023-08-24T10:18:11;14.13;;;10.85;;
74528;SDS011;63009;52.584;5.932;2023-08-24T10:20:38;17.48;;;10.40;;
74528;SDS011;63009;52.584;5.932;2023-08-24T10:23:03;15.90;;;11.02;;
74528;SDS011;63009;52.584;5.932;2023-08-24T10:25:29;14.63;;;11.30;;
74528;SDS011;63009;52.584;5.932;2023-08-24T10:27:55;16.90;;;10.55;;
74528;SDS011;63009;52.584;5.932;2023-08-24T10:30:21;18.25;;;11.20;;
74528;SDS011;63009;52.584;5.932;2023-08-24T10:32:48;15.65;;;9.88;;
74528;SDS011;63009;52.584;5.932;2023-08-24T10:35:18;15.70;;;9.90;;
74528;SDS011;63009;52.584;5.932;2023-08-24T10:37:44;14.77;;;10.10;;
74528;SDS011;63009;52.584;5.932;2023-08-24T10:42:46;14.47;;;10.47;;
74528;SDS011;63009;52.584;5.932;2023-08-24T10:45:13;15.25;;;10.63;;
74528;SDS011;63009;52.584;5.932;2023-08-24T10:47:45;17.13;;;10.90;;
74528;SDS011;63009;52.584;5.932;2023-08-24T10:50:11;16.23;;;11.15;;
74528;SDS011;63009;52.584;5.932;2023-08-24T10:52:38;14.52;;;10.43;;
74528;SDS011;63009;52.584;5.932;2023-08-24T10:55:04;15.65;;;10.38;;
74528;SDS011;63009;52.584;5.932;2023-08-24T10:57:51;19.00;;;10.73;;
74528;SDS011;63009;52.584;5.932;2023-08-24T11:00:21;16.10;;;11.02;;
74528;SDS011;63009;52.584;5.932;2023-08-24T11:02:48;14.68;;;10.43;;
74528;SDS011;63009;52.584;5.932;2023-08-24T11:07:56;16.52;;;9.75;;
74528;SDS011;63009;52.584;5.932;2023-08-24T11:10:25;16.30;;;10.95;;
74528;SDS011;63009;52.584;5.932;2023-08-24T11:20:51;17.60;;;11.10;;
74528;SDS011;63009;52.584;5.932;2023-08-24T11:23:18;16.80;;;10.68;;
74528;SDS011;63009;52.584;5.932;2023-08-24T11:25:45;15.30;;;10.02;;
74528;SDS011;63009;52.584;5.932;2023-08-24T11:28:11;19.17;;;11.68;;
74528;SDS011;63009;52.584;5.932;2023-08-24T11:30:41;16.27;;;11.57;;
74528;SDS011;63009;52.584;5.932;2023-08-24T11:33:07;17.75;;;11.75;;
74528;SDS011;63009;52.584;5.932;2023-08-24T11:35:35;18.63;;;12.90;;
74528;SDS011;63009;52.584;5.932;2023-08-24T11:38:01;16.48;;;10.75;;
74528;SDS011;63009;52.584;5.932;2023-08-24T11:40:27;16.35;;;11.90;;
74528;SDS011;63009;52.584;5.932;2023-08-24T11:42:55;19.45;;;9.85;;
74528;SDS011;63009;52.584;5.932;2023-08-24T11:45:21;17.50;;;11.95;;
74528;SDS011;63009;52.584;5.932;2023-08-24T11:47:48;18.70;;;10.70;;
74528;SDS011;63009;52.584;5.932;2023-08-24T11:50:14;17.17;;;11.32;;
74528;SDS011;63009;52.584;5.932;2023-08-24T11:52:39;18.77;;;13.48;;
74528;SDS011;63009;52.584;5.932;2023-08-24T11:55:05;17.58;;;10.88;;
74528;SDS011;63009;52.584;5.932;2023-08-24T11:57:34;19.30;;;12.15;;
74528;SDS011;63009;52.584;5.932;2023-08-24T12:00:01;19.08;;;14.15;;
74528;SDS011;63009;52.584;5.932;2023-08-24T12:02:28;17.25;;;12.30;;
74528;SDS011;63009;52.584;5.932;2023-08-24T12:04:53;18.50;;;14.45;;
74528;SDS011;63009;52.584;5.932;2023-08-24T12:07:20;20.48;;;14.15;;
74528;SDS011;63009;52.584;5.932;2023-08-24T12:09:45;21.25;;;13.93;;
74528;SDS011;63009;52.584;5.932;2023-08-24T12:12:17;17.77;;;13.13;;
74528;SDS011;63009;52.584;5.932;2023-08-24T12:14:45;17.58;;;13.10;;
74528;SDS011;63009;52.584;5.932;2023-08-24T12:17:12;17.25;;;12.63;;
74528;SDS011;63009;52.584;5.932;2023-08-24T12:19:42;19.23;;;14.05;;
74528;SDS011;63009;52.584;5.932;2023-08-24T12:22:16;19.08;;;14.15;;
74528;SDS011;63009;52.584;5.932;2023-08-24T12:24:45;17.20;;;13.13;;
74528;SDS011;63009;52.584;5.932;2023-08-24T12:27:20;19.55;;;12.85;;
74528;SDS011;63009;52.584;5.932;2023-08-24T12:29:47;15.65;;;11.23;;
74528;SDS011;63009;52.584;5.932;2023-08-24T12:32:13;20.40;;;12.23;;
74528;SDS011;63009;52.584;5.932;2023-08-24T12:34:41;18.10;;;13.68;;
74528;SDS011;63009;52.584;5.932;2023-08-24T12:37:06;19.52;;;14.40;;
74528;SDS011;63009;52.584;5.932;2023-08-24T12:39:35;18.40;;;13.17;;
74528;SDS011;63009;52.584;5.932;2023-08-24T12:42:01;18.55;;;12.75;;
74528;SDS011;63009;52.584;5.932;2023-08-24T12:44:27;17.40;;;12.43;;
74528;SDS011;63009;52.584;5.932;2023-08-24T12:46:52;18.40;;;12.88;;
74528;SDS011;63009;52.584;5.932;2023-08-24T12:49:18;17.50;;;11.83;;
74528;SDS011;63009;52.584;5.932;2023-08-24T12:51:43;17.07;;;13.13;;
74528;SDS011;63009;52.584;5.932;2023-08-24T12:54:08;15.35;;;10.75;;
74528;SDS011;63009;52.584;5.932;2023-08-24T12:56:33;18.50;;;12.23;;
74528;SDS011;63009;52.584;5.932;2023-08-24T12:59:00;16.73;;;12.52;;
74528;SDS011;63009;52.584;5.932;2023-08-24T13:01:25;16.02;;;12.10;;
74528;SDS011;63009;52.584;5.932;2023-08-24T13:03:50;17.05;;;12.88;;
74528;SDS011;63009;52.584;5.932;2023-08-24T13:06:16;18.40;;;13.15;;
74528;SDS011;63009;52.584;5.932;2023-08-24T13:08:41;19.70;;;13.45;;
74528;SDS011;63009;52.584;5.932;2023-08-24T13:11:06;17.90;;;12.63;;
74528;SDS011;63009;52.584;5.932;2023-08-24T13:13:32;19.93;;;13.27;;
74528;SDS011;63009;52.584;5.932;2023-08-24T13:15:57;18.00;;;13.43;;
74528;SDS011;63009;52.584;5.932;2023-08-24T13:18:22;18.07;;;14.23;;
74528;SDS011;63009;52.584;5.932;2023-08-24T13:20:47;16.88;;;12.77;;
74528;SDS011;63009;52.584;5.932;2023-08-24T13:23:13;16.57;;;13.60;;
74528;SDS011;63009;52.584;5.932;2023-08-24T13:25:39;18.05;;;13.15;;
74528;SDS011;63009;52.584;5.932;2023-08-24T13:28:05;18.08;;;15.10;;
74528;SDS011;63009;52.584;5.932;2023-08-24T13:30:31;21.05;;;14.75;;
74528;SDS011;63009;52.584;5.932;2023-08-24T13:32:56;17.73;;;14.07;;
74528;SDS011;63009;52.584;5.932;2023-08-24T13:35:21;22.03;;;16.17;;
74528;SDS011;63009;52.584;5.932;2023-08-24T13:37:47;21.10;;;15.32;;
74528;SDS011;63009;52.584;5.932;2023-08-24T13:40:12;19.83;;;15.87;;
74528;SDS011;63009;52.584;5.932;2023-08-24T13:42:38;21.50;;;15.30;;
74528;SDS011;63009;52.584;5.932;2023-08-24T13:45:03;21.30;;;15.70;;
74528;SDS011;63009;52.584;5.932;2023-08-24T13:47:29;18.45;;;14.65;;
74528;SDS011;63009;52.584;5.932;2023-08-24T13:49:54;19.57;;;14.00;;
74528;SDS011;63009;52.584;5.932;2023-08-24T13:52:19;19.27;;;15.37;;
74528;SDS011;63009;52.584;5.932;2023-08-24T13:54:45;18.42;;;13.93;;
74528;SDS011;63009;52.584;5.932;2023-08-24T13:57:10;21.65;;;14.35;;
74528;SDS011;63009;52.584;5.932;2023-08-24T13:59:35;20.13;;;15.33;;
74528;SDS011;63009;52.584;5.932;2023-08-24T14:02:01;23.47;;;17.00;;
74528;SDS011;63009;52.584;5.932;2023-08-24T14:04:26;18.67;;;15.23;;
74528;SDS011;63009;52.584;5.932;2023-08-24T14:06:51;20.30;;;14.57;;
74528;SDS011;63009;52.584;5.932;2023-08-24T14:09:17;20.07;;;13.67;;
74528;SDS011;63009;52.584;5.932;2023-08-24T14:11:42;20.63;;;14.47;;
74528;SDS011;63009;52.584;5.932;2023-08-24T14:14:07;21.90;;;15.25;;
74528;SDS011;63009;52.584;5.932;2023-08-24T14:16:33;22.27;;;15.07;;
74528;SDS011;63009;52.584;5.932;2023-08-24T14:18:58;19.70;;;16.02;;
74528;SDS011;63009;52.584;5.932;2023-08-24T14:21:23;16.90;;;14.00;;
74528;SDS011;63009;52.584;5.932;2023-08-24T14:23:48;19.80;;;15.00;;
74528;SDS011;63009;52.584;5.932;2023-08-24T14:26:14;18.10;;;14.00;;
74528;SDS011;63009;52.584;5.932;2023-08-24T14:28:50;20.37;;;15.13;;
74528;SDS011;63009;52.584;5.932;2023-08-24T14:31:23;18.50;;;15.20;;
74528;SDS011;63009;52.584;5.932;2023-08-24T14:33:49;19.00;;;16.00;;
74528;SDS011;63009;52.584;5.932;2023-08-24T14:36:15;18.95;;;14.02;;
74528;SDS011;63009;52.584;5.932;2023-08-24T14:38:41;19.92;;;15.77;;
74528;SDS011;63009;52.584;5.932;2023-08-24T14:41:07;20.92;;;16.08;;
74528;SDS011;63009;52.584;5.932;2023-08-24T14:43:33;18.08;;;14.95;;